メインページ
METAR-TAF:

METAR-TAF

空港 :

イカルイト, ヌナブト準州, カナダ

イカルイト空港

緯度: 63-45N, 経度: 068-33W, 海抜: 34m

現時点の気象観測

当レポートは1時間0分前の11:00(UTC)に作成
北/北西の風 21kt、最大27ktの突風を伴う
気温 -16°C
湿度 78%
気圧 1016 hPa
視程: 19.3km
高度2600ftの雲は散在している
高度4200ftの千切れ雲あり
小雪, 低い地吹雪

METAR: CYFB 231100Z 34021G27KT 12SM -SN DRSN SCT026 BKN042 M16/M19 A3000 RMK SC3SC3 SLP166

時間: 08:00 (12:00 UTC)

予報

当レポートは22分前の11:38(UTC)に作成
予報は23日の 12時(UTC)から 24日の 12時(UTC)まで有効
北/北西の風 20kt
視程: 10km
高度2000ftの雲は散在している
高度4000ftの曇り
小雪
23日の 12時(UTC)から 23日の 24時(UTC)まで一時的に
視程: 4.8km
高度2000ftの曇り
小雪, 靄
24日の 0000時(UTC)から
北西の風 8kt
視程: 10km
高度600ftの雲はほとんどない
高度2000ftの千切れ雲あり
高度5000ftの千切れ雲あり
小雪
24日の 0600時(UTC)から
の風 12kt
視程: 10km
高度2500ftの千切れ雲あり
小雪

TAF: CYFB 231138Z 2312/2412 33020KT P6SM -SN SCT020 OVC040 TEMPO 2312/2324 3SM -SN BR OVC020 FM240000 32008KT P6SM -SN FEW006 BKN020 BKN050 FM240600 35012KT P6SM -SN BKN025 RMK NXT FCST BY 231800Z

4,000以上の空港の気象観測と天気予報(METAR報とTAF報)

利用可能な観測所は地図上に黄色い丸と赤い丸で示す。

丸の上にカーソルを重ねると観測所名を参照できる。

次にクリックすると気象観測と天気予報を参照できる。

マップの切り替え:黒色「×」印の緑ボタンをクリックして拡大、「-」印の緑ボタンをクリックして縮小、緑色の三角印をクリックして隣りの地図に切り替え


METAR-TAF: